createdAt,value
2022-09-03T00:04:47.434Z,99.90
2022-09-03T00:09:55.799Z,99.90
2022-09-03T00:15:19.783Z,99.90
2022-09-03T00:20:37.631Z,99.90
2022-09-03T00:25:42.822Z,99.90
2022-09-03T00:30:54.432Z,99.90
2022-09-03T00:36:12.354Z,99.90
2022-09-03T00:41:33.750Z,99.90
2022-09-03T00:46:42.008Z,99.90
2022-09-03T00:51:50.059Z,99.90
2022-09-03T00:57:32.219Z,99.90
2022-09-03T01:03:10.009Z,99.90
2022-09-03T01:08:41.441Z,99.90
2022-09-03T01:14:11.846Z,99.90
2022-09-03T01:19:52.127Z,99.90
2022-09-03T01:25:12.111Z,99.90
2022-09-03T01:30:24.128Z,99.90
2022-09-03T01:35:46.641Z,99.90
2022-09-03T01:40:55.413Z,99.90
2022-09-03T01:46:02.558Z,99.90
2022-09-03T01:51:20.969Z,99.90
2022-09-03T01:57:04.082Z,99.90
2022-09-03T02:02:12.778Z,99.90
2022-09-03T02:07:14.678Z,99.90
2022-09-03T02:12:19.498Z,99.90
2022-09-03T02:17:21.687Z,99.90
2022-09-03T02:22:23.649Z,99.90
2022-09-03T02:27:25.969Z,99.90
2022-09-03T02:32:28.511Z,99.90
2022-09-03T02:37:30.272Z,99.90
2022-09-03T02:42:32.609Z,99.90
2022-09-03T02:47:37.749Z,99.90
2022-09-03T02:52:39.635Z,99.90
2022-09-03T02:57:42.343Z,99.90
2022-09-03T03:02:44.212Z,99.90
2022-09-03T03:07:46.245Z,99.90
2022-09-03T03:12:48.447Z,99.90
2022-09-03T03:17:50.297Z,99.90
2022-09-03T03:22:52.100Z,99.90
2022-09-03T03:27:57.077Z,99.90
2022-09-03T03:32:59.224Z,99.90
2022-09-03T03:38:01.063Z,99.90
2022-09-03T03:43:02.863Z,99.90
2022-09-03T03:48:04.728Z,99.90
2022-09-03T03:53:06.901Z,99.90
2022-09-03T03:58:08.668Z,99.90
2022-09-03T04:03:10.452Z,99.90
2022-09-03T04:08:13.059Z,99.90
2022-09-03T04:13:15.032Z,99.90
2022-09-03T04:18:16.855Z,99.90
2022-09-03T04:23:19.032Z,99.90
2022-09-03T04:28:20.811Z,99.90
2022-09-03T04:33:25.280Z,99.90
2022-09-03T04:38:29.663Z,99.90
2022-09-03T04:43:31.924Z,99.90
2022-09-03T04:48:35.163Z,99.90
2022-09-03T04:53:42.314Z,99.90
2022-09-03T04:58:44.788Z,99.90
2022-09-03T05:03:47.028Z,99.90
2022-09-03T05:08:50.404Z,99.90
2022-09-03T05:13:55.157Z,99.90
2022-09-03T05:19:06.030Z,99.90
2022-09-03T05:24:07.875Z,99.90
2022-09-03T05:29:09.937Z,99.90
2022-09-03T05:34:16.574Z,99.90
2022-09-03T05:39:20.300Z,99.90
2022-09-03T05:44:23.228Z,99.90
2022-09-03T05:49:25.819Z,99.90
2022-09-03T05:54:27.612Z,99.90
2022-09-03T05:59:29.507Z,99.90
2022-09-03T06:04:31.329Z,99.90
2022-09-03T06:09:35.231Z,99.90
2022-09-03T06:14:37.088Z,99.90
2022-09-03T06:19:39.210Z,99.90
2022-09-03T06:24:41.007Z,99.90
2022-09-03T06:29:43.171Z,99.90
2022-09-03T06:34:44.918Z,99.90
2022-09-03T06:39:47.009Z,99.90
2022-09-03T06:44:49.057Z,99.90
2022-09-03T06:49:50.831Z,99.90
2022-09-03T06:54:53.026Z,99.90
2022-09-03T06:59:55.428Z,72.00
2022-09-03T07:04:57.224Z,51.80
2022-09-03T07:09:59.029Z,46.40
2022-09-03T07:15:00.782Z,46.40
2022-09-03T07:20:02.743Z,42.20
2022-09-03T07:25:05.063Z,39.20
2022-09-03T07:30:09.799Z,40.20
2022-09-03T07:35:11.615Z,38.60
2022-09-03T07:40:14.056Z,34.80
2022-09-03T07:45:15.889Z,33.60
2022-09-03T07:50:17.985Z,33.60
2022-09-03T07:55:20.103Z,35.70
2022-09-03T08:00:21.931Z,34.40
2022-09-03T08:05:23.764Z,33.80
2022-09-03T08:10:28.471Z,32.20
2022-09-03T08:15:30.228Z,30.40
2022-09-03T08:20:32.391Z,31.30
2022-09-03T08:25:34.227Z,30.00
2022-09-03T08:30:37.258Z,29.30
2022-09-03T08:35:39.404Z,30.10
2022-09-03T08:40:42.723Z,32.00
2022-09-03T08:45:45.336Z,29.40
2022-09-03T08:50:52.745Z,33.00
2022-09-03T08:56:00.780Z,31.40
2022-09-03T09:01:31.786Z,32.80
2022-09-03T09:06:59.092Z,36.70
2022-09-03T09:12:41.149Z,33.00
2022-09-03T09:18:24.256Z,35.60
2022-09-03T09:23:54.168Z,43.00
2022-09-03T09:29:02.155Z,49.90
2022-09-03T09:34:07.629Z,53.60
2022-09-03T09:39:11.804Z,79.10
2022-09-03T09:44:21.240Z,99.90
2022-09-03T09:49:38.299Z,99.90
2022-09-03T09:54:42.432Z,99.90
2022-09-03T09:59:46.208Z,99.90
2022-09-03T10:04:48.030Z,99.90
2022-09-03T10:10:13.122Z,99.90
2022-09-03T10:15:27.946Z,99.90
2022-09-03T10:20:49.867Z,99.90
2022-09-03T10:25:58.066Z,99.90
2022-09-03T10:31:31.983Z,99.90
2022-09-03T10:36:42.632Z,99.90
2022-09-03T10:41:55.914Z,99.30
2022-09-03T10:47:19.753Z,99.90
2022-09-03T10:52:27.407Z,99.90
2022-09-03T10:57:47.811Z,99.90
2022-09-03T11:03:01.828Z,99.90
2022-09-03T11:08:09.810Z,99.90
2022-09-03T11:13:23.024Z,99.90
2022-09-03T11:18:38.193Z,99.90
2022-09-03T11:23:47.634Z,99.90
2022-09-03T11:29:02.344Z,99.90
2022-09-03T11:34:22.163Z,97.90
2022-09-03T11:39:40.149Z,99.90
2022-09-03T11:44:51.656Z,99.90
2022-09-03T11:50:07.435Z,96.00
2022-09-03T11:55:09.239Z,98.40
2022-09-03T12:00:15.967Z,99.40
2022-09-03T12:05:25.541Z,99.40
2022-09-03T12:10:56.526Z,96.50
2022-09-03T12:16:16.193Z,97.50
2022-09-03T12:21:18.120Z,97.60
2022-09-03T12:26:25.971Z,98.50
2022-09-03T12:31:30.877Z,99.90
2022-09-03T12:36:53.788Z,99.90
2022-09-03T12:42:08.142Z,99.80
2022-09-03T12:52:39.130Z,92.70
2022-09-03T12:58:13.814Z,90.40
2022-09-03T13:03:48.779Z,90.00
2022-09-03T13:09:03.293Z,91.40
2022-09-03T13:14:13.876Z,90.70
2022-09-03T13:19:47.594Z,86.90
2022-09-03T13:24:49.418Z,90.30
2022-09-03T13:29:55.165Z,92.50
2022-09-03T13:35:25.145Z,92.50
2022-09-03T13:40:48.579Z,90.60
2022-09-03T13:46:15.881Z,89.50
2022-09-03T13:51:29.785Z,90.30
2022-09-03T13:56:49.767Z,90.70
2022-09-03T14:02:17.231Z,87.30
2022-09-03T14:07:28.695Z,90.90
2022-09-03T14:13:15.139Z,93.00
2022-09-03T14:18:31.391Z,91.50
2022-09-03T14:23:41.729Z,93.10
2022-09-03T14:28:50.086Z,93.90
2022-09-03T14:33:59.355Z,93.60
2022-09-03T14:39:32.769Z,94.20
2022-09-03T14:44:44.021Z,97.50
2022-09-03T14:50:01.038Z,99.00
2022-09-03T14:55:31.516Z,99.60
2022-09-03T15:01:13.384Z,99.90
2022-09-03T15:06:38.309Z,99.90
2022-09-03T15:12:01.207Z,99.90
2022-09-03T15:17:24.825Z,99.90
2022-09-03T15:22:49.317Z,99.90
2022-09-03T15:28:18.157Z,99.90
2022-09-03T15:33:59.756Z,99.90
2022-09-03T15:39:34.030Z,99.90
2022-09-03T15:45:00.905Z,99.90
2022-09-03T15:50:15.364Z,99.90
2022-09-03T15:55:37.434Z,99.90
2022-09-03T16:00:45.327Z,99.90
2022-09-03T16:05:57.916Z,99.90
2022-09-03T16:11:12.634Z,99.90
2022-09-03T16:16:42.456Z,99.90
2022-09-03T16:22:13.644Z,99.90
2022-09-03T16:27:26.268Z,99.90
2022-09-03T16:32:50.806Z,99.90
2022-09-03T16:37:59.615Z,99.90
2022-09-03T16:43:18.123Z,99.90
2022-09-03T16:48:46.999Z,99.90
2022-09-03T16:54:09.320Z,99.90
2022-09-03T16:59:35.193Z,99.90
2022-09-03T17:05:01.951Z,99.90
2022-09-03T17:10:22.260Z,99.90
2022-09-03T17:15:37.914Z,99.90
2022-09-03T17:21:01.208Z,99.90
2022-09-03T17:26:41.877Z,99.90
2022-09-03T17:32:07.589Z,99.90
2022-09-03T17:37:30.202Z,99.90
2022-09-03T17:43:08.079Z,99.90
2022-09-03T17:48:18.976Z,99.90
2022-09-03T17:53:26.172Z,99.90
2022-09-03T17:59:09.592Z,99.90
2022-09-03T18:04:36.963Z,99.90
2022-09-03T18:10:11.718Z,99.90
2022-09-03T18:15:25.524Z,99.90
2022-09-03T18:21:08.607Z,99.90
2022-09-03T18:26:40.227Z,99.90
2022-09-03T18:32:01.766Z,99.90
2022-09-03T18:37:22.198Z,99.90
2022-09-03T18:43:03.933Z,99.90
2022-09-03T18:48:40.458Z,99.90
2022-09-03T18:54:22.374Z,99.90
2022-09-03T19:00:05.295Z,99.90
2022-09-03T19:05:37.306Z,99.90
2022-09-03T19:11:19.808Z,99.90
2022-09-03T19:17:00.655Z,99.90
2022-09-03T19:22:31.780Z,99.90
2022-09-03T19:28:01.143Z,99.90
2022-09-03T19:33:40.446Z,99.90
2022-09-03T19:39:30.152Z,99.90
2022-09-03T19:45:12.730Z,99.90
2022-09-03T19:50:41.310Z,99.90
2022-09-03T19:56:14.943Z,99.90
2022-09-03T20:01:37.484Z,99.90
2022-09-03T20:06:58.550Z,99.90
2022-09-03T20:12:09.216Z,99.90
2022-09-03T20:17:20.906Z,99.90
2022-09-03T20:22:53.829Z,99.90
2022-09-03T20:28:01.830Z,99.90
2022-09-03T20:33:30.995Z,99.90
2022-09-03T20:39:04.870Z,99.90
2022-09-03T20:44:31.297Z,99.90
2022-09-03T20:49:55.030Z,99.90
2022-09-03T20:55:12.941Z,99.90
2022-09-03T21:00:18.583Z,99.90
2022-09-03T21:05:34.556Z,99.90
2022-09-03T21:11:01.806Z,99.90
2022-09-03T21:16:34.742Z,99.90
2022-09-03T21:22:00.073Z,99.90
2022-09-03T21:27:16.095Z,99.90
2022-09-03T21:32:24.948Z,99.90
2022-09-03T21:37:28.232Z,99.90
2022-09-03T21:42:43.411Z,99.90
2022-09-03T21:47:51.542Z,99.90
2022-09-03T21:53:31.783Z,99.90
2022-09-03T21:58:33.539Z,99.90
2022-09-03T22:03:35.344Z,99.90
2022-09-03T22:08:45.421Z,99.90
2022-09-03T22:14:16.945Z,99.90
2022-09-03T22:19:18.827Z,99.90
2022-09-03T22:24:34.624Z,99.90
2022-09-03T22:30:05.929Z,99.90
2022-09-03T22:35:33.662Z,99.90
2022-09-03T22:40:52.440Z,99.90
2022-09-03T22:46:05.725Z,99.90
2022-09-03T22:51:09.203Z,99.90
2022-09-03T22:56:13.587Z,99.90
2022-09-03T23:01:34.539Z,99.90
2022-09-03T23:06:57.462Z,99.90
2022-09-03T23:12:24.504Z,99.90
2022-09-03T23:22:42.118Z,99.90
2022-09-03T23:27:53.567Z,99.90
2022-09-03T23:32:58.971Z,99.90
2022-09-03T23:38:11.398Z,99.90
2022-09-03T23:43:40.349Z,99.90
2022-09-03T23:49:23.656Z,99.90
2022-09-03T23:54:47.107Z,99.90
2022-09-03T23:59:58.047Z,99.90
